Time;durP1;ratioP1;P1;durP2;ratioP2;P2;SDS_P1;SDS_P2;PMS_P1;PMS_P2;Temp;Humidity;BMP_temperature;BMP_pressure;BME280_temperature;BME280_humidity;BME280_pressure;Samples;Min_cycle;Max_cycle;Signal;HPM_P1;HPM_P2
2024/03/05 00:00:18;;;;;;;15.68;6.60;;;;;;;;;;5855074;28;20053;-80
2024/03/05 00:03:10;;;;;;;8.80;6.93;;;;;;;;;;5838918;28;20544;-80
2024/03/05 00:06:01;;;;;;;10.15;6.57;;;;;;;;;;5838862;28;20050;-80
2024/03/05 00:08:51;;;;;;;6.18;5.35;;;;;;;;;;5855687;28;20054;-81
2024/03/05 00:11:42;;;;;;;6.28;5.15;;;;;;;;;;5855050;28;20049;-80
2024/03/05 00:14:33;;;;;;;8.43;5.32;;;;;;;;;;5839627;28;20042;-81
2024/03/05 00:17:24;;;;;;;6.55;5.75;;;;;;;;;;5854745;28;20057;-80
2024/03/05 00:20:20;;;;;;;8.85;6.40;;;;;;;;;;5840001;28;20057;-80
2024/03/05 00:23:12;;;;;;;12.05;8.48;;;;;;;;;;5854952;28;20416;-80
2024/03/05 00:26:03;;;;;;;17.88;10.98;;;;;;;;;;5839665;28;20049;-80
2024/03/05 00:28:56;;;;;;;11.30;6.57;;;;;;;;;;5855112;28;20108;-80
2024/03/05 00:31:47;;;;;;;6.78;4.60;;;;;;;;;;5838853;28;20408;-81
2024/03/05 00:34:38;;;;;;;6.47;4.88;;;;;;;;;;5839369;28;20522;-81
2024/03/05 00:37:29;;;;;;;7.70;5.30;;;;;;;;;;5853640;28;20052;-81
2024/03/05 00:40:20;;;;;;;7.63;5.90;;;;;;;;;;5855184;28;20053;-81
2024/03/05 00:43:11;;;;;;;7.07;5.32;;;;;;;;;;5838419;28;20083;-81
2024/03/05 00:46:02;;;;;;;9.15;6.00;;;;;;;;;;5838780;28;20520;-81
2024/03/05 00:48:52;;;;;;;8.60;5.70;;;;;;;;;;5838102;28;20061;-81
2024/03/05 00:51:44;;;;;;;9.02;5.82;;;;;;;;;;5816898;28;20049;-80
2024/03/05 00:54:35;;;;;;;6.38;5.65;;;;;;;;;;5817129;28;20046;-80
2024/03/05 00:57:25;;;;;;;6.13;5.53;;;;;;;;;;5817133;28;20046;-80
2024/03/05 01:00:19;;;;;;;4.68;3.45;;;;;;;;;;5832311;28;20050;-81
2024/03/05 01:03:10;;;;;;;9.77;4.72;;;;;;;;;;5833948;28;20053;-81
2024/03/05 01:06:03;;;;;;;7.72;5.55;;;;;;;;;;5838539;28;20049;-80
2024/03/05 01:08:55;;;;;;;6.15;5.50;;;;;;;;;;5838975;28;20057;-81
2024/03/05 01:11:46;;;;;;;6.78;5.65;;;;;;;;;;5838688;28;20060;-80
2024/03/05 01:14:37;;;;;;;5.95;5.03;;;;;;;;;;5838482;28;20137;-81
2024/03/05 01:17:28;;;;;;;6.30;4.50;;;;;;;;;;5839774;28;20049;-81
2024/03/05 01:20:20;;;;;;;7.28;4.20;;;;;;;;;;5838531;28;20132;-81
2024/03/05 01:23:11;;;;;;;9.75;4.93;;;;;;;;;;5838547;28;20046;-81
2024/03/05 01:26:02;;;;;;;4.85;4.38;;;;;;;;;;5838165;28;20211;-81
2024/03/05 01:28:55;;;;;;;4.82;4.28;;;;;;;;;;5839998;28;20120;-81
2024/03/05 01:31:46;;;;;;;6.25;4.90;;;;;;;;;;5838321;28;20050;-81
2024/03/05 01:34:37;;;;;;;4.93;3.95;;;;;;;;;;5837916;28;20041;-81
2024/03/05 01:37:28;;;;;;;6.90;4.07;;;;;;;;;;5854204;28;20172;-81
2024/03/05 01:40:19;;;;;;;4.93;3.88;;;;;;;;;;5838242;28;20050;-80
2024/03/05 01:43:10;;;;;;;4.22;3.30;;;;;;;;;;5839762;28;20131;-81
2024/03/05 01:46:02;;;;;;;3.75;3.08;;;;;;;;;;5838581;28;20050;-80
2024/03/05 01:48:53;;;;;;;3.05;2.80;;;;;;;;;;5838635;28;20467;-81
2024/03/05 01:51:44;;;;;;;4.85;3.90;;;;;;;;;;5839425;28;20046;-81
2024/03/05 01:54:35;;;;;;;6.32;3.83;;;;;;;;;;5838334;28;20504;-81
2024/03/05 01:57:26;;;;;;;14.45;3.15;;;;;;;;;;5839020;28;20056;-81
2024/03/05 02:00:20;;;;;;;3.80;2.85;;;;;;;;;;5838976;28;20046;-81
2024/03/05 02:03:12;;;;;;;4.40;4.00;;;;;;;;;;5842469;28;20049;-81
2024/03/05 02:06:07;;;;;;;4.20;3.60;;;;;;;;;;5842415;28;20054;-81
2024/03/05 02:09:01;;;;;;;6.53;2.97;;;;;;;;;;5858732;28;20050;-81
2024/03/05 02:11:52;;;;;;;4.78;3.28;;;;;;;;;;5865448;28;20041;-81
2024/03/05 02:14:49;;;;;;;3.45;2.72;;;;;;;;;;5865224;28;20093;-81
2024/03/05 02:17:40;;;;;;;4.22;3.58;;;;;;;;;;5858549;28;20042;-81
2024/03/05 02:20:31;;;;;;;4.13;2.78;;;;;;;;;;5842116;28;20095;-81
2024/03/05 02:23:22;;;;;;;2.95;2.65;;;;;;;;;;5842456;28;20053;-81
2024/03/05 02:26:14;;;;;;;9.07;3.83;;;;;;;;;;5843403;28;20080;-81
2024/03/05 02:29:05;;;;;;;3.00;2.33;;;;;;;;;;5858519;28;21014;-81
2024/03/05 02:31:57;;;;;;;2.65;2.45;;;;;;;;;;5842277;28;20607;-81
2024/03/05 02:34:49;;;;;;;4.05;2.88;;;;;;;;;;5841807;28;20046;-81
2024/03/05 02:37:41;;;;;;;2.53;1.92;;;;;;;;;;5858027;28;20053;-81
2024/03/05 02:40:32;;;;;;;2.70;2.47;;;;;;;;;;5841560;28;20053;-81
2024/03/05 02:43:23;;;;;;;4.75;3.33;;;;;;;;;;5874380;28;20167;-81
2024/03/05 02:46:14;;;;;;;3.55;3.17;;;;;;;;;;5841517;28;20104;-81
2024/03/05 02:49:05;;;;;;;3.47;3.15;;;;;;;;;;5841575;28;20196;-81
2024/03/05 02:51:56;;;;;;;4.43;3.20;;;;;;;;;;5841732;28;20045;-81
2024/03/05 02:54:47;;;;;;;3.30;3.00;;;;;;;;;;5840541;28;20523;-81
2024/03/05 02:57:41;;;;;;;4.03;2.78;;;;;;;;;;5841000;28;20052;-81
2024/03/05 03:00:33;;;;;;;3.65;3.25;;;;;;;;;;5873821;28;20455;-81
2024/03/05 03:03:25;;;;;;;3.95;3.63;;;;;;;;;;5824808;28;20045;-81
2024/03/05 03:06:17;;;;;;;4.50;3.92;;;;;;;;;;5841038;28;20529;-81
2024/03/05 03:09:08;;;;;;;3.55;2.72;;;;;;;;;;5873812;28;20053;-81
2024/03/05 03:11:59;;;;;;;8.18;3.78;;;;;;;;;;5841798;28;20416;-81
2024/03/05 03:14:50;;;;;;;5.65;3.97;;;;;;;;;;5855807;28;20041;-81
2024/03/05 03:17:41;;;;;;;2.70;2.42;;;;;;;;;;5863876;28;20041;-81
2024/03/05 03:20:32;;;;;;;4.07;2.42;;;;;;;;;;5863692;28;20044;-81
2024/03/05 03:23:23;;;;;;;3.05;2.42;;;;;;;;;;5863815;28;20045;-81
2024/03/05 03:26:14;;;;;;;1.45;1.35;;;;;;;;;;5863655;28;20049;-81
2024/03/05 03:29:11;;;;;;;7.60;2.00;;;;;;;;;;5863518;28;20487;-81
2024/03/05 03:32:04;;;;;;;1.98;1.85;;;;;;;;;;5857485;28;20112;-81
2024/03/05 03:34:55;;;;;;;2.40;2.22;;;;;;;;;;5840740;28;20068;-81
2024/03/05 03:37:47;;;;;;;2.20;2.00;;;;;;;;;;5840145;28;20522;-81
2024/03/05 03:40:41;;;;;;;4.20;1.77;;;;;;;;;;5840274;28;20048;-81
2024/03/05 03:43:33;;;;;;;2.38;1.70;;;;;;;;;;5873058;28;20045;-81
2024/03/05 03:46:24;;;;;;;1.67;1.48;;;;;;;;;;5856467;28;20524;-81
2024/03/05 03:49:16;;;;;;;2.28;1.75;;;;;;;;;;5841380;28;20046;-81
2024/03/05 03:52:08;;;;;;;2.85;1.92;;;;;;;;;;5856557;28;20096;-81
2024/03/05 03:54:59;;;;;;;2.42;1.55;;;;;;;;;;5856719;28;20050;-81
2024/03/05 03:57:51;;;;;;;2.97;2.42;;;;;;;;;;5839817;28;20046;-81
2024/03/05 04:00:44;;;;;;;1.77;1.67;;;;;;;;;;5839747;28;20060;-81
2024/03/05 04:03:35;;;;;;;2.33;1.98;;;;;;;;;;5841072;28;20042;-81
2024/03/05 04:06:28;;;;;;;2.63;2.15;;;;;;;;;;5839374;28;20038;-81
2024/03/05 04:09:19;;;;;;;2.83;2.60;;;;;;;;;;5839572;28;20054;-81
2024/03/05 04:12:12;;;;;;;2.45;2.25;;;;;;;;;;5839496;28;20046;-81
2024/03/05 04:15:05;;;;;;;4.57;2.53;;;;;;;;;;5840789;28;20464;-81
2024/03/05 04:17:57;;;;;;;4.78;2.50;;;;;;;;;;5872305;28;20050;-81
2024/03/05 04:20:49;;;;;;;2.92;2.63;;;;;;;;;;5839360;28;20124;-81
2024/03/05 04:23:40;;;;;;;2.63;2.42;;;;;;;;;;5838857;28;20129;-81
2024/03/05 04:26:31;;;;;;;2.72;2.28;;;;;;;;;;5855572;28;20042;-81
2024/03/05 04:29:29;;;;;;;2.58;2.03;;;;;;;;;;5840565;28;20046;-81
2024/03/05 04:32:21;;;;;;;;;;;;;;;;;;5872222;28;20180;-81
2024/03/05 04:35:13;;;;;;;6.03;3.75;;;;;;;;;;5855503;28;19925;-81
2024/03/05 04:38:07;;;;;;;2.65;2.33;;;;;;;;;;5872047;28;20060;-81
2024/03/05 04:40:58;;;;;;;3.17;2.33;;;;;;;;;;5840087;28;20365;-81
2024/03/05 04:43:49;;;;;;;3.38;2.88;;;;;;;;;;5838687;28;20045;-81
2024/03/05 04:46:40;;;;;;;2.88;2.58;;;;;;;;;;5839093;28;20128;-81
2024/03/05 04:49:31;;;;;;;5.03;2.45;;;;;;;;;;5839028;28;20053;-81
2024/03/05 04:52:22;;;;;;;2.40;2.20;;;;;;;;;;5838790;28;20073;-81
2024/03/05 04:55:13;;;;;;;2.83;2.55;;;;;;;;;;5838380;28;20065;-81
2024/03/05 04:58:05;;;;;;;3.97;2.55;;;;;;;;;;5854778;28;20052;-81
2024/03/05 05:00:55;;;;;;;2.08;1.80;;;;;;;;;;5839098;28;20053;-81
2024/03/05 05:03:46;;;;;;;2.85;1.52;;;;;;;;;;5838427;28;20050;-81
2024/03/05 05:06:37;;;;;;;3.42;2.20;;;;;;;;;;5840109;28;20492;-81
2024/03/05 05:09:28;;;;;;;2.08;1.88;;;;;;;;;;5838332;28;20050;-81
2024/03/05 05:12:19;;;;;;;2.42;2.15;;;;;;;;;;5837473;28;20058;-81
2024/03/05 05:15:12;;;;;;;2.40;1.58;;;;;;;;;;5839106;28;20050;-81
2024/03/05 05:18:04;;;;;;;2.55;1.38;;;;;;;;;;5838606;28;20042;-81
2024/03/05 05:20:55;;;;;;;2.85;1.65;;;;;;;;;;5838325;28;20069;-81
2024/03/05 05:23:46;;;;;;;2.35;1.60;;;;;;;;;;5838013;28;20077;-81
2024/03/05 05:26:42;;;;;;;2.40;2.15;;;;;;;;;;5838268;28;20045;-81
2024/03/05 05:29:33;;;;;;;2.45;2.08;;;;;;;;;;5839264;28;20046;-81
2024/03/05 05:32:35;;;;;;;2.20;2.00;;;;;;;;;;5838378;28;20042;-81
2024/03/05 05:35:25;;;;;;;1.33;1.13;;;;;;;;;;5840474;28;20121;-81
2024/03/05 05:38:16;;;;;;;1.70;1.52;;;;;;;;;;5844264;28;20401;-81
2024/03/05 05:41:07;;;;;;;1.50;1.30;;;;;;;;;;5843978;28;20046;-81
2024/03/05 05:43:58;;;;;;;3.15;2.45;;;;;;;;;;5843359;28;20100;-81
2024/03/05 05:46:50;;;;;;;3.08;2.38;;;;;;;;;;5842615;28;20041;-81
2024/03/05 05:49:42;;;;;;;2.67;2.42;;;;;;;;;;5857701;28;20495;-81
2024/03/05 05:52:33;;;;;;;2.95;2.67;;;;;;;;;;5859153;28;20042;-81
2024/03/05 05:55:27;;;;;;;2.40;2.17;;;;;;;;;;5858767;28;20071;-81
2024/03/05 05:58:18;;;;;;;5.78;3.38;;;;;;;;;;5874132;28;20123;-81
2024/03/05 06:01:10;;;;;;;4.70;3.05;;;;;;;;;;5858721;28;20602;-81
2024/03/05 06:04:01;;;;;;;5.47;3.90;;;;;;;;;;5842389;28;20405;-81
2024/03/05 06:06:52;;;;;;;6.72;4.20;;;;;;;;;;5842579;28;20045;-81
2024/03/05 06:09:43;;;;;;;9.07;5.72;;;;;;;;;;5843542;28;20069;-81
2024/03/05 06:12:34;;;;;;;6.45;4.65;;;;;;;;;;5841990;28;20692;-81
2024/03/05 06:15:28;;;;;;;4.90;4.45;;;;;;;;;;5874888;28;20046;-81
2024/03/05 06:18:19;;;;;;;6.88;5.15;;;;;;;;;;5843382;28;20699;-81
2024/03/05 06:21:10;;;;;;;6.75;5.70;;;;;;;;;;5842217;28;20050;-81
2024/03/05 06:24:01;;;;;;;6.78;3.95;;;;;;;;;;5841869;28;20141;-81
2024/03/05 06:26:52;;;;;;;8.18;5.05;;;;;;;;;;5858876;28;20050;-81
2024/03/05 06:29:44;;;;;;;5.53;3.83;;;;;;;;;;5842034;28;20522;-81
2024/03/05 06:32:43;;;;;;;6.10;4.32;;;;;;;;;;5841843;28;20048;-81
2024/03/05 06:35:34;;;;;;;2.33;2.13;;;;;;;;;;5841503;28;20587;-81
2024/03/05 06:38:25;;;;;;;7.95;3.97;;;;;;;;;;5841277;28;20046;-81
2024/03/05 06:41:15;;;;;;;5.80;4.78;;;;;;;;;;5841532;28;20050;-81
2024/03/05 06:44:14;;;;;;;7.38;4.40;;;;;;;;;;5841575;28;20060;-81
2024/03/05 06:47:05;;;;;;;4.68;4.28;;;;;;;;;;5841763;28;20464;-81
2024/03/05 06:49:59;;;;;;;6.30;5.70;;;;;;;;;;5841400;28;20103;-81
2024/03/05 06:59:10;;;;;;;9.50;6.13;;;;;;;;;;5864334;28;20424;-81
2024/03/05 07:02:01;;;;;;;10.70;6.70;;;;;;;;;;5864913;28;20056;-81
2024/03/05 07:04:53;;;;;;;13.30;6.88;;;;;;;;;;5866394;28;20041;-81
2024/03/05 07:07:45;;;;;;;9.18;6.72;;;;;;;;;;5868731;28;20361;-81
2024/03/05 07:10:39;;;;;;;6.20;4.10;;;;;;;;;;5858533;28;20052;-81
2024/03/05 07:13:30;;;;;;;6.82;5.68;;;;;;;;;;5857166;28;20045;-81
2024/03/05 07:16:23;;;;;;;8.55;5.75;;;;;;;;;;5857514;28;20124;-81
2024/03/05 07:19:15;;;;;;;11.40;6.70;;;;;;;;;;5840505;28;20058;-81
2024/03/05 07:22:07;;;;;;;10.70;7.60;;;;;;;;;;5841562;28;20108;-81
2024/03/05 07:24:57;;;;;;;8.45;6.88;;;;;;;;;;5841057;28;20046;-81
2024/03/05 07:27:50;;;;;;;9.45;8.10;;;;;;;;;;5840534;28;20046;-81
2024/03/05 07:30:42;;;;;;;7.25;6.15;;;;;;;;;;5873115;28;20042;-81
2024/03/05 07:33:33;;;;;;;10.93;8.50;;;;;;;;;;5840570;28;20042;-81
2024/03/05 07:36:24;;;;;;;7.75;5.78;;;;;;;;;;5840345;28;20046;-81
2024/03/05 07:39:16;;;;;;;23.98;7.88;;;;;;;;;;5840495;28;20081;-81
2024/03/05 07:42:07;;;;;;;9.80;7.55;;;;;;;;;;5840168;28;20060;-81
2024/03/05 07:44:58;;;;;;;10.43;7.88;;;;;;;;;;5841622;28;20050;-81
2024/03/05 07:47:50;;;;;;;8.70;6.18;;;;;;;;;;5856603;28;20416;-81
2024/03/05 07:50:42;;;;;;;5.53;4.85;;;;;;;;;;5840973;28;20099;-81
2024/03/05 07:53:33;;;;;;;8.10;6.57;;;;;;;;;;5839627;28;20042;-81
2024/03/05 07:56:23;;;;;;;8.35;6.30;;;;;;;;;;5841156;28;20053;-81
2024/03/05 07:59:14;;;;;;;7.30;5.88;;;;;;;;;;5840494;28;20050;-81
2024/03/05 08:02:05;;;;;;;8.23;5.93;;;;;;;;;;5839785;28;20060;-81
2024/03/05 08:04:56;;;;;;;9.63;6.07;;;;;;;;;;5840234;28;20056;-81
2024/03/05 08:08:01;;;;;;;8.57;6.57;;;;;;;;;;5839683;28;20045;-81
2024/03/05 08:10:53;;;;;;;16.05;7.97;;;;;;;;;;5863694;28;20038;-81
2024/03/05 08:13:45;;;;;;;9.52;6.78;;;;;;;;;;5823154;28;20038;-81
2024/03/05 08:16:38;;;;;;;8.18;7.20;;;;;;;;;;5839665;28;20041;-81
2024/03/05 08:19:30;;;;;;;9.68;7.50;;;;;;;;;;5840932;28;20093;-81
2024/03/05 08:22:23;;;;;;;10.98;7.32;;;;;;;;;;5855376;28;20073;-81
2024/03/05 08:25:16;;;;;;;9.43;6.93;;;;;;;;;;5855936;28;20572;-81
2024/03/05 08:28:07;;;;;;;10.32;7.38;;;;;;;;;;5871496;28;20057;-81
2024/03/05 08:30:58;;;;;;;7.00;6.25;;;;;;;;;;5839548;28;20430;-81
2024/03/05 08:33:49;;;;;;;6.60;5.32;;;;;;;;;;5839115;28;20042;-81
2024/03/05 08:36:41;;;;;;;17.08;9.27;;;;;;;;;;5838945;28;20050;-81
2024/03/05 08:39:33;;;;;;;8.20;5.05;;;;;;;;;;5840084;28;20045;-81
2024/03/05 08:42:24;;;;;;;7.88;5.75;;;;;;;;;;5838850;28;20042;-81
2024/03/05 08:45:22;;;;;;;15.63;10.25;;;;;;;;;;5838378;28;20061;-81
2024/03/05 08:48:13;;;;;;;9.23;6.72;;;;;;;;;;5838909;28;20053;-81
2024/03/05 08:51:04;;;;;;;17.67;10.32;;;;;;;;;;5838382;28;20042;-81
2024/03/05 08:53:55;;;;;;;16.25;9.85;;;;;;;;;;5855118;28;20061;-79
2024/03/05 08:56:46;;;;;;;13.65;9.48;;;;;;;;;;5839497;28;20552;-80
2024/03/05 08:59:37;;;;;;;11.40;8.75;;;;;;;;;;5838849;28;20050;-80
2024/03/05 09:02:28;;;;;;;10.48;7.82;;;;;;;;;;5838461;28;20508;-80
2024/03/05 09:05:19;;;;;;;14.93;7.13;;;;;;;;;;5821955;28;20149;-80
2024/03/05 09:08:10;;;;;;;7.57;6.57;;;;;;;;;;5821828;28;20423;-80
2024/03/05 09:11:05;;;;;;;6.60;5.38;;;;;;;;;;5837841;28;20049;-80
2024/03/05 09:13:56;;;;;;;8.90;7.40;;;;;;;;;;5838855;28;20037;-80
2024/03/05 09:16:47;;;;;;;35.72;6.65;;;;;;;;;;5838026;28;20176;-80
2024/03/05 09:19:38;;;;;;;6.47;5.60;;;;;;;;;;5854472;28;20053;-80
2024/03/05 09:22:29;;;;;;;12.15;7.35;;;;;;;;;;5837984;28;20050;-80
2024/03/05 09:25:19;;;;;;;9.13;7.57;;;;;;;;;;5837083;28;20045;-80
2024/03/05 09:28:10;;;;;;;9.52;6.70;;;;;;;;;;5839473;28;20049;-80
2024/03/05 09:31:02;;;;;;;11.88;8.50;;;;;;;;;;5839350;28;20468;-80
2024/03/05 09:33:54;;;;;;;9.73;5.90;;;;;;;;;;5839739;28;20121;-80
2024/03/05 09:36:45;;;;;;;10.68;8.70;;;;;;;;;;5870796;28;20034;-80
2024/03/05 09:39:35;;;;;;;18.83;9.68;;;;;;;;;;5854290;28;20050;-80
2024/03/05 09:42:27;;;;;;;10.75;7.65;;;;;;;;;;5839082;28;20052;-79
2024/03/05 09:45:19;;;;;;;28.63;9.52;;;;;;;;;;5854317;28;20049;-80
2024/03/05 09:48:11;;;;;;;8.48;6.15;;;;;;;;;;5870436;28;20056;-80
2024/03/05 09:51:03;;;;;;;14.60;7.85;;;;;;;;;;5854064;28;20053;-80
2024/03/05 09:53:54;;;;;;;9.50;5.97;;;;;;;;;;5854804;28;20046;-80
2024/03/05 09:56:45;;;;;;;10.20;7.05;;;;;;;;;;5837866;28;20042;-80
2024/03/05 09:59:40;;;;;;;10.70;6.80;;;;;;;;;;5837894;28;20132;-79
2024/03/05 10:02:31;;;;;;;11.00;6.43;;;;;;;;;;5837744;28;20500;-79
2024/03/05 10:05:22;;;;;;;12.70;7.25;;;;;;;;;;5837645;28;20049;-80
2024/03/05 10:08:14;;;;;;;9.10;6.88;;;;;;;;;;5837993;28;20053;-80
2024/03/05 10:11:05;;;;;;;10.43;7.30;;;;;;;;;;5837680;28;20415;-80
2024/03/05 10:14:10;;;;;;;8.50;6.68;;;;;;;;;;5838307;28;20566;-80
2024/03/05 10:17:04;;;;;;;12.52;7.28;;;;;;;;;;5854765;28;20049;-80
2024/03/05 10:19:55;;;;;;;9.75;6.75;;;;;;;;;;5862766;28;20080;-80
2024/03/05 10:23:07;;;;;;;13.95;7.80;;;;;;;;;;5864338;28;20065;-80
2024/03/05 10:26:18;;;;;;;6.88;5.25;;;;;;;;;;5864740;28;20034;-80
2024/03/05 10:29:10;;;;;;;8.05;6.63;;;;;;;;;;5864371;28;20049;-80
2024/03/05 10:32:05;;;;;;;9.70;6.28;;;;;;;;;;5858001;28;20061;-80
2024/03/05 10:34:56;;;;;;;7.35;6.28;;;;;;;;;;5874477;28;20514;-80
2024/03/05 10:38:14;;;;;;;11.77;6.72;;;;;;;;;;5842676;28;20103;-80
2024/03/05 10:41:07;;;;;;;9.88;6.15;;;;;;;;;;5862435;28;20546;-80
2024/03/05 10:44:04;;;;;;;13.15;8.45;;;;;;;;;;5841833;28;20097;-79
2024/03/05 10:46:56;;;;;;;13.23;7.32;;;;;;;;;;5841539;28;20053;-79
2024/03/05 10:49:47;;;;;;;9.38;6.65;;;;;;;;;;5841222;28;20064;-79
2024/03/05 10:52:40;;;;;;;12.65;6.57;;;;;;;;;;5841025;28;20089;-80
2024/03/05 10:55:33;;;;;;;9.63;7.30;;;;;;;;;;5856996;28;20516;-80
2024/03/05 11:01:31;;;;;;;6.65;5.72;;;;;;;;;;5841907;28;20046;-80
2024/03/05 11:04:24;;;;;;;8.10;5.80;;;;;;;;;;5840518;28;20056;-80
2024/03/05 11:07:15;;;;;;;6.82;4.97;;;;;;;;;;5856966;28;20065;-80
2024/03/05 11:10:12;;;;;;;10.25;5.28;;;;;;;;;;5840752;28;20153;-80
2024/03/05 11:13:04;;;;;;;6.57;5.25;;;;;;;;;;5840813;28;20042;-80
2024/03/05 11:15:55;;;;;;;12.82;7.63;;;;;;;;;;5841248;28;20049;-80
2024/03/05 11:18:46;;;;;;;7.53;5.35;;;;;;;;;;5840435;28;20049;-80
2024/03/05 11:21:41;;;;;;;7.35;6.22;;;;;;;;;;5857625;28;20046;-80
2024/03/05 11:24:32;;;;;;;11.70;6.00;;;;;;;;;;5842714;28;20052;-80
2024/03/05 11:27:27;;;;;;;8.55;6.88;;;;;;;;;;5840154;28;20053;-80
2024/03/05 11:30:19;;;;;;;13.35;7.07;;;;;;;;;;5841543;28;20054;-80
2024/03/05 11:33:18;;;;;;;8.00;6.15;;;;;;;;;;5840425;28;20049;-80
2024/03/05 11:36:22;;;;;;;12.23;6.93;;;;;;;;;;5841088;28;20054;-80
2024/03/05 11:39:14;;;;;;;11.15;6.80;;;;;;;;;;5841058;28;20152;-80
2024/03/05 11:42:20;;;;;;;9.63;6.30;;;;;;;;;;5842174;28;20492;-80
2024/03/05 11:45:47;;;;;;;11.40;6.85;;;;;;;;;;5840947;28;20088;-80
2024/03/05 11:48:38;;;;;;;7.40;5.50;;;;;;;;;;5856660;28;20097;-80
2024/03/05 11:51:28;;;;;;;5.20;4.32;;;;;;;;;;5839554;28;20046;-80
2024/03/05 11:54:20;;;;;;;12.63;6.07;;;;;;;;;;5839232;28;20054;-80
2024/03/05 11:57:16;;;;;;;9.23;6.70;;;;;;;;;;5839456;28;20518;-80
2024/03/05 12:00:16;;;;;;;13.50;6.10;;;;;;;;;;5840848;28;20050;-80
2024/03/05 12:03:07;;;;;;;6.90;4.25;;;;;;;;;;5839684;28;20061;-80
2024/03/05 12:05:59;;;;;;;5.70;4.55;;;;;;;;;;5839495;28;20672;-80
2024/03/05 12:08:53;;;;;;;7.57;4.95;;;;;;;;;;5839471;28;20042;-80
2024/03/05 12:12:10;;;;;;;8.65;6.07;;;;;;;;;;5839447;28;20053;-80
2024/03/05 12:15:04;;;;;;;9.05;4.03;;;;;;;;;;5840177;28;20449;-80
2024/03/05 12:17:58;;;;;;;7.93;5.13;;;;;;;;;;5841466;28;20145;-80
2024/03/05 12:20:50;;;;;;;6.28;4.13;;;;;;;;;;5839413;28;20041;-80
2024/03/05 12:23:40;;;;;;;4.35;3.80;;;;;;;;;;5839406;28;20496;-80
2024/03/05 12:26:34;;;;;;;4.03;3.38;;;;;;;;;;5839316;28;20045;-80
2024/03/05 12:29:40;;;;;;;5.43;4.00;;;;;;;;;;5839738;28;20046;-80
2024/03/05 12:32:31;;;;;;;4.85;3.05;;;;;;;;;;5823738;28;20050;-80
2024/03/05 12:35:22;;;;;;;11.52;3.63;;;;;;;;;;5838732;28;20084;-80
2024/03/05 12:38:13;;;;;;;7.35;4.63;;;;;;;;;;5839153;28;20046;-80
2024/03/05 12:41:04;;;;;;;9.02;4.25;;;;;;;;;;5839646;28;20046;-80
2024/03/05 12:43:55;;;;;;;8.13;5.07;;;;;;;;;;5839844;28;20041;-80
2024/03/05 12:46:46;;;;;;;6.88;5.32;;;;;;;;;;5839179;28;20050;-80
2024/03/05 12:49:48;;;;;;;6.47;3.92;;;;;;;;;;5838824;28;20066;-80
2024/03/05 12:52:39;;;;;;;4.88;3.30;;;;;;;;;;5839701;28;20711;-80
2024/03/05 12:55:30;;;;;;;9.20;4.20;;;;;;;;;;5838446;28;20044;-80
2024/03/05 12:58:21;;;;;;;7.55;5.03;;;;;;;;;;5822266;28;20053;-79
2024/03/05 13:01:14;;;;;;;5.15;3.53;;;;;;;;;;5838440;28;20317;-79
2024/03/05 13:04:06;;;;;;;5.93;4.72;;;;;;;;;;5840019;28;20046;-80
2024/03/05 13:06:57;;;;;;;8.45;4.60;;;;;;;;;;5838775;28;20573;-80
2024/03/05 13:09:48;;;;;;;4.38;3.97;;;;;;;;;;5839966;28;20041;-80
2024/03/05 13:12:41;;;;;;;7.43;4.30;;;;;;;;;;5839797;28;20041;-79
2024/03/05 13:15:33;;;;;;;6.07;4.70;;;;;;;;;;5838432;28;20045;-80
2024/03/05 13:18:24;;;;;;;7.47;5.80;;;;;;;;;;5839464;28;20048;-80
2024/03/05 13:21:15;;;;;;;12.60;6.47;;;;;;;;;;5838708;28;20061;-79
2024/03/05 13:24:07;;;;;;;9.77;5.10;;;;;;;;;;5838479;28;20068;-79
2024/03/05 13:27:01;;;;;;;13.80;7.95;;;;;;;;;;5838754;28;20053;-80
2024/03/05 13:29:52;;;;;;;7.32;5.13;;;;;;;;;;5855001;28;20042;-79
2024/03/05 13:32:59;;;;;;;5.47;4.57;;;;;;;;;;5867366;28;20042;-80
2024/03/05 13:35:55;;;;;;;6.25;3.45;;;;;;;;;;5851467;28;20041;-80
2024/03/05 13:38:50;;;;;;;7.25;4.22;;;;;;;;;;5879160;28;20061;-80
2024/03/05 13:41:41;;;;;;;4.90;3.22;;;;;;;;;;5861474;28;20037;-79
2024/03/05 13:44:35;;;;;;;7.32;3.67;;;;;;;;;;5861890;28;20053;-79
2024/03/05 13:47:26;;;;;;;7.38;4.65;;;;;;;;;;5861342;28;20049;-80
2024/03/05 13:50:19;;;;;;;4.82;3.20;;;;;;;;;;5861460;28;20050;-79
2024/03/05 13:53:10;;;;;;;6.35;4.78;;;;;;;;;;5847271;28;20148;-79
2024/03/05 13:56:05;;;;;;;15.23;10.50;;;;;;;;;;5838663;28;20057;-80
2024/03/05 13:59:09;;;;;;;7.70;4.38;;;;;;;;;;5871941;28;20045;-79
2024/03/05 14:02:01;;;;;;;4.95;3.38;;;;;;;;;;5872659;28;20041;-80
2024/03/05 14:04:52;;;;;;;7.78;4.20;;;;;;;;;;5866154;28;20514;-80
2024/03/05 14:07:44;;;;;;;10.40;3.75;;;;;;;;;;5882156;28;20046;-79
2024/03/05 14:10:35;;;;;;;5.70;4.22;;;;;;;;;;5881629;28;20045;-79
2024/03/05 14:13:26;;;;;;;7.28;3.30;;;;;;;;;;5881443;28;20106;-80
2024/03/05 14:16:17;;;;;;;3.13;2.78;;;;;;;;;;5882246;28;20050;-79
2024/03/05 14:19:08;;;;;;;3.33;3.03;;;;;;;;;;5867825;28;20057;-79
2024/03/05 14:22:00;;;;;;;4.55;3.67;;;;;;;;;;5866760;28;20049;-80
2024/03/05 14:24:52;;;;;;;5.70;3.50;;;;;;;;;;5868372;28;20115;-80
2024/03/05 14:27:43;;;;;;;5.90;4.10;;;;;;;;;;5867589;28;20049;-80
2024/03/05 14:30:41;;;;;;;3.92;3.00;;;;;;;;;;5867236;28;20049;-80
2024/03/05 14:33:33;;;;;;;3.88;2.92;;;;;;;;;;5865582;28;20449;-80
2024/03/05 14:36:25;;;;;;;4.07;3.47;;;;;;;;;;5864916;28;20046;-80
2024/03/05 14:39:16;;;;;;;4.03;2.90;;;;;;;;;;5866347;28;20099;-80
2024/03/05 14:42:07;;;;;;;6.13;4.22;;;;;;;;;;5865487;28;20434;-80
2024/03/05 14:45:01;;;;;;;8.75;3.55;;;;;;;;;;5880556;28;20136;-79
2024/03/05 14:47:51;;;;;;;6.55;3.47;;;;;;;;;;5882592;28;20045;-80
2024/03/05 14:50:42;;;;;;;3.80;3.30;;;;;;;;;;5865275;28;20037;-80
2024/03/05 14:53:34;;;;;;;8.30;4.10;;;;;;;;;;5881347;28;20041;-80
2024/03/05 14:56:26;;;;;;;9.90;4.97;;;;;;;;;;5881319;28;20046;-80
2024/03/05 14:59:20;;;;;;;9.60;3.85;;;;;;;;;;5865171;28;20073;-80
2024/03/05 15:02:11;;;;;;;7.75;3.65;;;;;;;;;;5864282;28;20065;-80
2024/03/05 15:05:02;;;;;;;5.50;3.50;;;;;;;;;;5880948;28;20127;-79
2024/03/05 15:07:52;;;;;;;7.82;5.03;;;;;;;;;;5879826;28;20609;-80
2024/03/05 15:10:44;;;;;;;11.15;3.13;;;;;;;;;;5880465;28;20053;-79
2024/03/05 15:13:35;;;;;;;8.70;5.70;;;;;;;;;;5865986;28;20056;-80
2024/03/05 15:16:26;;;;;;;28.73;19.02;;;;;;;;;;5863780;28;20053;-79
2024/03/05 15:19:17;;;;;;;25.33;16.73;;;;;;;;;;5864349;28;20050;-80
2024/03/05 15:22:08;;;;;;;12.50;8.55;;;;;;;;;;5863969;28;20049;-80
2024/03/05 15:24:59;;;;;;;8.68;5.82;;;;;;;;;;5880714;28;20045;-80
2024/03/05 15:27:49;;;;;;;11.85;7.65;;;;;;;;;;5863749;28;20041;-80
2024/03/05 15:30:44;;;;;;;8.00;5.90;;;;;;;;;;5862967;28;20440;-80
2024/03/05 15:33:39;;;;;;;13.23;8.15;;;;;;;;;;5864208;28;20448;-80
2024/03/05 15:36:31;;;;;;;8.35;5.53;;;;;;;;;;5862670;28;20041;-79
2024/03/05 15:39:22;;;;;;;8.77;4.97;;;;;;;;;;5864134;28;20180;-79
2024/03/05 15:42:12;;;;;;;19.35;6.07;;;;;;;;;;5863541;28;20054;-80
2024/03/05 15:45:05;;;;;;;9.20;4.97;;;;;;;;;;5863298;28;20118;-79
2024/03/05 15:47:58;;;;;;;7.35;5.07;;;;;;;;;;5865734;28;20410;-80
2024/03/05 15:50:51;;;;;;;5.85;4.32;;;;;;;;;;5863558;28;20045;-80
2024/03/05 15:53:43;;;;;;;5.93;4.40;;;;;;;;;;5879792;28;20053;-80
2024/03/05 15:56:56;;;;;;;8.05;6.13;;;;;;;;;;5879999;28;20056;-80
2024/03/05 16:03:16;;;;;;;5.30;4.63;;;;;;;;;;5860889;28;20056;-80
2024/03/05 16:06:30;;;;;;;5.85;5.30;;;;;;;;;;5829086;28;20076;-80
2024/03/05 16:09:21;;;;;;;11.50;8.82;;;;;;;;;;5862891;28;20042;-80
2024/03/05 16:12:13;;;;;;;11.73;8.18;;;;;;;;;;5863285;28;20053;-79
2024/03/05 16:15:06;;;;;;;16.30;11.32;;;;;;;;;;5863274;28;20056;-79
2024/03/05 16:17:58;;;;;;;9.65;6.20;;;;;;;;;;5865172;28;20053;-79
2024/03/05 16:20:51;;;;;;;11.82;8.20;;;;;;;;;;5856258;28;20123;-80
2024/03/05 16:23:43;;;;;;;29.50;14.10;;;;;;;;;;5840222;28;20057;-79
2024/03/05 16:26:34;;;;;;;17.77;11.00;;;;;;;;;;5871856;28;20488;-80
2024/03/05 16:29:25;;;;;;;16.23;9.40;;;;;;;;;;5839706;28;20042;-79
2024/03/05 16:32:17;;;;;;;26.50;15.05;;;;;;;;;;5839268;28;20072;-79
2024/03/05 16:35:12;;;;;;;11.38;6.90;;;;;;;;;;5871755;28;20054;-79
2024/03/05 16:38:04;;;;;;;154.02;70.15;;;;;;;;;;5840526;28;20504;-79
2024/03/05 16:40:57;;;;;;;91.80;41.17;;;;;;;;;;5871780;28;20523;-79
2024/03/05 16:43:47;;;;;;;25.73;12.85;;;;;;;;;;5871719;28;20527;-79
2024/03/05 16:46:40;;;;;;;31.00;13.88;;;;;;;;;;5855294;28;20136;-80
2024/03/05 16:49:32;;;;;;;10.13;7.88;;;;;;;;;;5870703;28;20049;-79
2024/03/05 16:52:23;;;;;;;11.27;6.32;;;;;;;;;;5838554;28;20550;-80
2024/03/05 16:55:16;;;;;;;7.15;5.68;;;;;;;;;;5840581;28;20052;-79
2024/03/05 16:58:08;;;;;;;15.77;10.40;;;;;;;;;;5823328;28;20073;-79
2024/03/05 17:01:11;;;;;;;17.95;9.88;;;;;;;;;;5854319;28;20125;-79
2024/03/05 17:04:05;;;;;;;32.25;22.17;;;;;;;;;;5840414;28;20066;-79
2024/03/05 17:06:59;;;;;;;45.47;25.52;;;;;;;;;;5871360;28;20046;-80
2024/03/05 17:09:50;;;;;;;43.40;26.75;;;;;;;;;;5854530;28;20038;-80
2024/03/05 17:12:41;;;;;;;27.60;17.70;;;;;;;;;;5838619;28;20049;-79
2024/03/05 17:15:37;;;;;;;15.90;9.57;;;;;;;;;;5839888;28;20046;-79
2024/03/05 17:18:31;;;;;;;14.45;9.50;;;;;;;;;;5854664;28;20056;-80
2024/03/05 17:21:22;;;;;;;13.23;10.60;;;;;;;;;;5838688;28;20046;-79